Time,TemperatureF,DewpointF,PressureIn,WindDirection,WindDirectionDegrees,WindSpeedMPH,WindSpeedGustMPH,Humidity,HourlyPrecipIn,Conditions,Clouds,dailyrainin,SoftwareType,DateUTC
2013-03-14 00:00:00,30.4,7.9,30.27,ENE,57,3.0,6.3,38,0.00,,,-99.99,FreeWX 2.04,2013-03-14 04:00:00,
2013-03-14 00:10:00,30.4,8.4,30.27,ENE,77,2.0,7.8,39,0.00,,,-99.99,FreeWX 2.04,2013-03-14 04:10:00,
2013-03-14 00:20:00,30.2,8.2,30.27,NNE,25,3.0,7.8,39,0.00,,,-99.99,FreeWX 2.04,2013-03-14 04:20:00,
2013-03-14 00:30:00,30.0,8.6,30.27,NE,43,2.0,6.7,40,0.00,,,-99.99,FreeWX 2.04,2013-03-14 04:30:00,
2013-03-14 00:40:00,30.0,8.6,30.27,NNE,33,2.0,5.4,40,0.00,,,-99.99,FreeWX 2.04,2013-03-14 04:40:00,
2013-03-14 00:50:00,29.5,8.2,30.27,NE,44,3.0,6.9,40,0.00,,,-99.99,FreeWX 2.04,2013-03-14 04:50:00,
2013-03-14 01:00:00,28.9,8.2,30.27,NE,44,3.0,6.9,41,0.00,,,-99.99,FreeWX 2.04,2013-03-14 05:00:00,
2013-03-14 01:10:00,28.6,7.9,30.27,NE,56,2.0,7.8,41,0.00,,,-99.99,FreeWX 2.04,2013-03-14 05:10:00,
2013-03-14 01:20:00,28.4,8.2,30.27,North,357,1.0,4.9,42,0.00,,,-99.99,FreeWX 2.04,2013-03-14 05:20:00,
2013-03-14 01:30:00,28.2,8.1,30.27,North,9,2.0,7.8,42,0.00,,,-99.99,FreeWX 2.04,2013-03-14 05:30:00,
2013-03-14 01:40:00,28.2,8.6,30.30,North,5,1.0,4.9,43,0.00,,,-99.99,FreeWX 2.04,2013-03-14 05:40:00,
2013-03-14 01:50:00,28.2,8.6,30.30,North,-999,0.0,5.8,43,0.00,,,-99.99,FreeWX 2.04,2013-03-14 05:50:00,
2013-03-14 02:00:00,28.0,8.4,30.30,NE,36,1.0,6.3,43,0.00,,,-99.99,FreeWX 2.04,2013-03-14 06:00:00,
2013-03-14 02:10:00,27.9,7.7,30.30,North,-999,0.0,4.0,42,0.00,,,-99.99,FreeWX 2.04,2013-03-14 06:10:00,
2013-03-14 02:20:00,27.5,8.1,30.30,ENE,70,1.0,4.0,43,0.00,,,-99.99,FreeWX 2.04,2013-03-14 06:20:00,
2013-03-14 02:30:00,27.3,7.9,30.30,North,-999,0.0,3.1,43,0.00,,,-99.99,FreeWX 2.04,2013-03-14 06:30:00,
2013-03-14 02:40:00,27.1,7.7,30.30,North,-999,0.0,4.0,43,0.00,,,-99.99,FreeWX 2.04,2013-03-14 06:40:00,
2013-03-14 02:50:00,27.0,7.5,30.30,North,-999,0.0,4.9,43,0.00,,,-99.99,FreeWX 2.04,2013-03-14 06:50:00,
2013-03-14 03:00:00,26.8,7.3,30.30,North,-999,0.0,4.0,43,0.00,,,-99.99,FreeWX 2.04,2013-03-14 07:00:00,
2013-03-14 03:10:00,26.6,7.2,30.30,NNE,33,1.0,4.9,43,0.00,,,-99.99,FreeWX 2.04,2013-03-14 07:10:00,
2013-03-14 03:20:00,26.4,7.0,30.30,North,-999,0.0,4.9,43,0.00,,,-99.99,FreeWX 2.04,2013-03-14 07:20:00,
2013-03-14 03:30:00,26.2,6.8,30.30,North,-999,0.0,3.6,43,0.00,,,-99.99,FreeWX 2.04,2013-03-14 07:30:00,
2013-03-14 03:40:00,26.2,6.8,30.30,North,-999,0.0,5.4,43,0.00,,,-99.99,FreeWX 2.04,2013-03-14 07:40:00,
2013-03-14 03:50:00,26.2,6.8,30.30,North,-999,0.0,3.1,43,0.00,,,-99.99,FreeWX 2.04,2013-03-14 07:50:00,
2013-03-14 04:00:00,25.9,6.4,30.30,North,-999,0.0,3.6,43,0.00,,,-99.99,FreeWX 2.04,2013-03-14 08:00:00,
2013-03-14 04:10:00,25.9,6.4,30.27,North,-999,0.0,4.0,43,0.00,,,-99.99,FreeWX 2.04,2013-03-14 08:10:00,
2013-03-14 04:20:00,25.7,6.3,30.27,North,-999,0.0,3.1,43,0.00,,,-99.99,FreeWX 2.04,2013-03-14 08:20:00,
2013-03-14 04:30:00,25.5,6.6,30.27,North,-999,0.0,4.0,44,0.00,,,-99.99,FreeWX 2.04,2013-03-14 08:30:00,
2013-03-14 04:40:00,25.5,6.3,30.30,North,-999,0.0,4.5,43,0.00,,,-99.99,FreeWX 2.04,2013-03-14 08:40:00,
2013-03-14 04:50:00,25.3,6.1,30.30,North,-999,0.0,0.0,43,0.00,,,-99.99,FreeWX 2.04,2013-03-14 08:50:00,
2013-03-14 05:00:00,25.3,6.4,30.30,North,-999,0.0,0.0,44,0.00,,,-99.99,FreeWX 2.04,2013-03-14 09:00:00,
2013-03-14 05:10:00,25.2,6.3,30.30,North,-999,0.0,3.6,44,0.00,,,-99.99,FreeWX 2.04,2013-03-14 09:10:00,
2013-03-14 05:20:00,25.0,6.3,30.30,North,-999,0.0,4.5,44,0.00,,,-99.99,FreeWX 2.04,2013-03-14 09:20:00,
2013-03-14 05:30:00,25.0,6.3,30.30,North,-999,0.0,4.0,44,0.00,,,-99.99,FreeWX 2.04,2013-03-14 09:30:00,
2013-03-14 05:40:00,24.8,6.1,30.30,North,-999,0.0,2.7,44,0.00,,,-99.99,FreeWX 2.04,2013-03-14 09:40:00,
2013-03-14 05:50:00,24.8,6.1,30.30,North,-999,0.0,4.9,44,0.00,,,-99.99,FreeWX 2.04,2013-03-14 09:50:00,
2013-03-14 06:00:00,24.6,5.9,30.30,North,-999,0.0,4.5,44,0.00,,,-99.99,FreeWX 2.04,2013-03-14 10:00:00,
2013-03-14 06:10:00,24.4,5.7,30.30,North,-999,0.0,5.4,44,0.00,,,-99.99,FreeWX 2.04,2013-03-14 10:10:00,
2013-03-14 06:20:00,24.3,5.5,30.33,North,-999,0.0,5.4,44,0.00,,,-99.99,FreeWX 2.04,2013-03-14 10:20:00,
2013-03-14 06:30:00,24.3,5.5,30.33,North,-999,0.0,4.5,44,0.00,,,-99.99,FreeWX 2.04,2013-03-14 10:30:00,
2013-03-14 06:40:00,24.1,5.4,30.33,North,-999,0.0,4.0,44,0.00,,,-99.99,FreeWX 2.04,2013-03-14 10:40:00,
2013-03-14 06:50:00,23.9,5.7,30.33,North,-999,0.0,2.7,45,0.00,,,-99.99,FreeWX 2.04,2013-03-14 10:50:00,
2013-03-14 07:00:00,23.7,5.5,30.33,North,-999,0.0,2.7,45,0.00,,,-99.99,FreeWX 2.04,2013-03-14 11:00:00,
2013-03-14 07:10:00,23.7,5.5,30.33,North,-999,0.0,3.1,45,0.00,,,-99.99,FreeWX 2.04,2013-03-14 11:10:00,
2013-03-14 07:20:00,23.4,5.7,30.33,North,-999,0.0,0.0,46,0.00,,,-99.99,FreeWX 2.04,2013-03-14 11:20:00,
2013-03-14 07:30:00,23.4,6.1,30.33,North,-999,0.0,0.0,47,0.00,,,-99.99,FreeWX 2.04,2013-03-14 11:30:00,
2013-03-14 07:40:00,23.2,5.9,30.33,North,-999,0.0,0.0,47,0.00,,,-99.99,FreeWX 2.04,2013-03-14 11:40:00,
2013-03-14 07:50:00,23.0,5.7,30.33,North,-999,0.0,0.0,47,0.00,,,-99.99,FreeWX 2.04,2013-03-14 11:50:00,
2013-03-14 08:00:00,23.5,7.2,30.33,North,-999,0.0,0.0,49,0.00,,,-99.99,FreeWX 2.04,2013-03-14 12:00:00,
2013-03-14 08:10:00,23.4,7.5,30.33,North,-999,0.0,0.0,50,0.00,,,-99.99,FreeWX 2.04,2013-03-14 12:10:00,
2013-03-14 08:20:00,23.7,7.9,30.33,North,-999,0.0,0.0,50,0.00,,,-99.99,FreeWX 2.04,2013-03-14 12:20:00,
2013-03-14 08:30:00,24.1,8.2,30.33,North,-999,0.0,0.0,50,0.00,,,-99.99,FreeWX 2.04,2013-03-14 12:30:00,
2013-03-14 08:40:00,24.8,9.3,30.33,North,-999,0.0,3.6,51,0.00,,,-99.99,FreeWX 2.04,2013-03-14 12:40:00,
2013-03-14 08:50:00,25.9,10.2,30.33,North,353,1.0,5.8,51,0.00,,,-99.99,FreeWX 2.04,2013-03-14 12:50:00,
2013-03-14 09:00:00,27.0,9.5,30.33,North,5,3.0,5.4,47,0.00,,,-99.99,FreeWX 2.04,2013-03-14 13:00:00,
2013-03-14 09:10:00,27.9,9.9,30.33,North,1,1.0,4.9,46,0.00,,,-99.99,FreeWX 2.04,2013-03-14 13:10:00,
2013-03-14 09:20:00,28.8,10.2,30.33,North,4,2.0,6.3,45,0.00,,,-99.99,FreeWX 2.04,2013-03-14 13:20:00,
2013-03-14 09:30:00,29.5,9.3,30.33,North,1,3.0,6.3,42,0.00,,,-99.99,FreeWX 2.04,2013-03-14 13:30:00,
2013-03-14 09:40:00,30.6,10.2,30.33,North,358,2.0,5.4,42,0.00,,,-99.99,FreeWX 2.04,2013-03-14 13:40:00,
2013-03-14 09:50:00,31.3,9.9,30.33,North,3,2.0,5.4,40,0.00,,,-99.99,FreeWX 2.04,2013-03-14 13:50:00,
2013-03-14 10:00:00,32.2,10.0,30.33,NNE,12,3.0,5.8,39,0.00,,,-99.99,FreeWX 2.04,2013-03-14 14:00:00,
2013-03-14 10:10:00,32.7,6.8,30.33,North,2,4.0,7.8,33,0.00,,,-99.99,FreeWX 2.04,2013-03-14 14:10:00,
2013-03-14 10:20:00,33.6,7.0,30.33,North,6,4.0,6.7,32,0.00,,,-99.99,FreeWX 2.04,2013-03-14 14:20:00,
2013-03-14 10:30:00,34.5,7.0,30.33,NNE,21,4.0,6.9,31,0.00,,,-99.99,FreeWX 2.04,2013-03-14 14:30:00,
2013-03-14 10:40:00,35.1,6.8,30.33,NNE,23,3.0,7.8,30,0.00,,,-99.99,FreeWX 2.04,2013-03-14 14:40:00,
2013-03-14 10:50:00,35.1,4.5,30.33,North,4,4.0,7.8,27,0.00,,,-99.99,FreeWX 2.04,2013-03-14 14:50:00,
2013-03-14 11:00:00,36.0,6.8,30.33,North,356,4.0,7.4,29,0.00,,,-99.99,FreeWX 2.04,2013-03-14 15:00:00,
2013-03-14 11:10:00,36.1,5.4,30.33,SE,136,4.0,6.9,27,0.00,,,-99.99,FreeWX 2.04,2013-03-14 15:10:00,
2013-03-14 11:20:00,38.1,4.6,30.33,North,352,4.0,6.7,24,0.00,,,-99.99,FreeWX 2.04,2013-03-14 15:20:00,
2013-03-14 11:30:00,37.9,4.5,30.33,NNE,21,3.0,6.3,24,0.00,,,-99.99,FreeWX 2.04,2013-03-14 15:30:00,
2013-03-14 11:40:00,38.3,3.7,30.33,North,3,3.0,6.9,23,0.00,,,-99.99,FreeWX 2.04,2013-03-14 15:40:00,
2013-03-14 11:50:00,39.4,4.6,30.33,North,353,4.0,7.4,23,0.00,,,-99.99,FreeWX 2.04,2013-03-14 15:50:00,
2013-03-14 12:00:00,40.1,5.4,30.33,NNE,26,3.0,6.9,23,0.00,,,-99.99,FreeWX 2.04,2013-03-14 16:00:00,
2013-03-14 12:10:00,39.6,4.8,30.33,SE,142,4.0,6.7,23,0.00,,,-99.99,FreeWX 2.04,2013-03-14 16:10:00,
2013-03-14 12:20:00,41.0,6.1,30.30,North,350,4.0,8.3,23,0.00,,,-99.99,FreeWX 2.04,2013-03-14 16:20:00,
2013-03-14 12:30:00,42.4,7.3,30.30,North,6,4.0,11.6,23,0.00,,,-99.99,FreeWX 2.04,2013-03-14 16:30:00,
2013-03-14 12:40:00,43.3,8.1,30.30,North,0,5.0,8.7,23,0.00,,,-99.99,FreeWX 2.04,2013-03-14 16:40:00,
2013-03-14 12:50:00,42.3,4.1,30.30,SE,130,4.0,7.4,20,0.00,,,-99.99,FreeWX 2.04,2013-03-14 16:50:00,
2013-03-14 13:00:00,43.3,5.0,30.30,NNE,30,4.0,8.3,20,0.00,,,-99.99,FreeWX 2.04,2013-03-14 17:00:00,
2013-03-14 13:10:00,43.9,5.4,30.30,NNE,22,4.0,6.7,20,0.00,,,-99.99,FreeWX 2.04,2013-03-14 17:10:00,
2013-03-14 13:20:00,45.3,6.6,30.30,North,359,5.0,9.2,20,0.00,,,-99.99,FreeWX 2.04,2013-03-14 17:20:00,
2013-03-14 13:30:00,46.6,6.6,30.30,North,358,4.0,7.4,19,0.00,,,-99.99,FreeWX 2.04,2013-03-14 17:30:00,
2013-03-14 13:40:00,45.5,5.7,30.27,NNE,25,4.0,7.4,19,0.00,,,-99.99,FreeWX 2.04,2013-03-14 17:40:00,
2013-03-14 13:50:00,46.6,6.6,30.27,North,354,5.0,12.1,19,0.00,,,-99.99,FreeWX 2.04,2013-03-14 17:50:00,
2013-03-14 14:00:00,46.0,6.1,30.27,NNE,17,5.0,11.0,19,0.00,,,-99.99,FreeWX 2.04,2013-03-14 18:00:00,
2013-03-14 14:10:00,46.2,6.3,30.27,ESE,114,5.0,10.1,19,0.00,,,-99.99,FreeWX 2.04,2013-03-14 18:10:00,
2013-03-14 14:20:00,47.5,7.3,30.27,NW,324,5.0,11.6,19,0.00,,,-99.99,FreeWX 2.04,2013-03-14 18:20:00,
2013-03-14 14:30:00,48.2,7.9,30.27,NNW,347,4.0,10.1,19,0.00,,,-99.99,FreeWX 2.04,2013-03-14 18:30:00,
2013-03-14 14:41:00,48.9,8.4,30.27,North,358,5.0,10.1,19,0.00,,,-99.99,FreeWX 2.04,2013-03-14 18:41:00,
2013-03-14 14:51:00,49.3,8.8,30.24,North,0,4.0,9.2,19,0.00,,,-99.99,FreeWX 2.04,2013-03-14 18:51:00,
2013-03-14 15:01:00,48.7,8.4,30.24,ENE,58,5.0,9.6,19,0.00,,,-99.99,FreeWX 2.04,2013-03-14 19:01:00,
2013-03-14 15:11:00,48.9,8.4,30.24,ENE,72,5.0,10.5,19,0.00,,,-99.99,FreeWX 2.04,2013-03-14 19:11:00,
2013-03-14 15:21:00,49.5,9.0,30.24,NNE,16,4.0,8.3,19,0.00,,,-99.99,FreeWX 2.04,2013-03-14 19:21:00,
2013-03-14 15:31:00,49.3,8.8,30.24,North,3,4.0,11.2,19,0.00,,,-99.99,FreeWX 2.04,2013-03-14 19:31:00,
2013-03-14 15:41:00,49.8,9.3,30.24,North,10,5.0,9.2,19,0.00,,,-99.99,FreeWX 2.04,2013-03-14 19:41:00,
2013-03-14 15:51:00,49.5,9.0,30.21,NE,38,4.0,7.8,19,0.00,,,-99.99,FreeWX 2.04,2013-03-14 19:51:00,
2013-03-14 16:01:00,49.3,8.8,30.21,ENE,66,4.0,9.2,19,0.00,,,-99.99,FreeWX 2.04,2013-03-14 20:01:00,
2013-03-14 16:11:00,47.8,7.5,30.21,SE,143,4.0,7.8,19,0.00,,,-99.99,FreeWX 2.04,2013-03-14 20:11:00,
2013-03-14 16:21:00,49.6,9.1,30.21,North,8,5.0,8.7,19,0.00,,,-99.99,FreeWX 2.04,2013-03-14 20:21:00,
2013-03-14 16:31:00,49.6,9.1,30.21,North,2,5.0,10.1,19,0.00,,,-99.99,FreeWX 2.04,2013-03-14 20:31:00,
2013-03-14 16:41:00,48.6,8.2,30.21,NNE,13,4.0,9.6,19,0.00,,,-99.99,FreeWX 2.04,2013-03-14 20:41:00,
2013-03-14 16:51:00,48.6,8.2,30.21,NNE,20,3.0,9.2,19,0.00,,,-99.99,FreeWX 2.04,2013-03-14 20:51:00,
2013-03-14 17:01:00,48.9,8.4,30.21,NNE,13,4.0,9.6,19,0.00,,,-99.99,FreeWX 2.04,2013-03-14 21:01:00,
2013-03-14 17:22:00,48.0,7.7,30.21,NNE,30,4.0,11.0,19,0.00,,,-99.99,FreeWX 2.04,2013-03-14 21:22:00,
2013-03-14 17:32:00,47.3,7.2,30.21,NNE,20,5.0,10.5,19,0.00,,,-99.99,FreeWX 2.04,2013-03-14 21:32:00,
2013-03-14 17:42:00,46.2,6.3,30.21,NE,37,4.0,8.7,19,0.00,,,-99.99,FreeWX 2.04,2013-03-14 21:42:00,
2013-03-14 17:52:00,46.2,6.3,30.18,North,354,2.0,6.7,19,0.00,,,-99.99,FreeWX 2.04,2013-03-14 21:52:00,
2013-03-14 18:02:00,46.0,6.1,30.18,NNE,16,4.0,7.4,19,0.00,,,-99.99,FreeWX 2.04,2013-03-14 22:02:00,
2013-03-14 18:12:00,45.3,6.6,30.18,NE,53,4.0,10.5,20,0.00,,,-99.99,FreeWX 2.04,2013-03-14 22:12:00,
2013-03-14 18:22:00,44.8,6.3,30.18,NNE,13,5.0,11.2,20,0.00,,,-99.99,FreeWX 2.04,2013-03-14 22:22:00,
2013-03-14 18:32:00,44.2,5.7,30.18,NNE,26,4.0,6.9,20,0.00,,,-99.99,FreeWX 2.04,2013-03-14 22:32:00,
2013-03-14 18:42:00,43.7,5.4,30.18,East,86,3.0,7.8,20,0.00,,,-99.99,FreeWX 2.04,2013-03-14 22:42:00,
2013-03-14 18:52:00,43.7,5.4,30.18,NNE,14,3.0,7.4,20,0.00,,,-99.99,FreeWX 2.04,2013-03-14 22:52:00,
2013-03-14 19:02:00,43.2,4.8,30.18,ENE,66,3.0,6.9,20,0.00,,,-99.99,FreeWX 2.04,2013-03-14 23:02:00,
2013-03-14 19:12:00,42.3,4.1,30.18,North,6,2.0,7.4,20,0.00,,,-99.99,FreeWX 2.04,2013-03-14 23:12:00,
2013-03-14 19:22:00,41.4,4.5,30.18,NNE,12,3.0,8.7,21,0.00,,,-99.99,FreeWX 2.04,2013-03-14 23:22:00,
2013-03-14 19:32:00,40.6,3.7,30.18,North,351,2.0,4.0,21,0.00,,,-99.99,FreeWX 2.04,2013-03-14 23:32:00,
2013-03-14 19:42:00,39.9,3.2,30.18,East,95,1.0,4.0,21,0.00,,,-99.99,FreeWX 2.04,2013-03-14 23:42:00,
2013-03-14 19:52:00,39.4,2.7,30.18,North,-999,0.0,4.0,21,0.00,,,-99.99,FreeWX 2.04,2013-03-14 23:52:00,
2013-03-14 20:02:00,38.8,2.3,30.18,North,-999,0.0,0.0,21,0.00,,,-99.99,FreeWX 2.04,2013-03-15 00:02:00,
2013-03-14 20:12:00,38.7,2.1,30.18,North,-999,0.0,0.0,21,0.00,,,-99.99,FreeWX 2.04,2013-03-15 00:12:00,
2013-03-14 20:22:00,38.1,1.8,30.18,North,-999,0.0,0.0,21,0.00,,,-99.99,FreeWX 2.04,2013-03-15 00:22:00,
2013-03-14 20:32:00,37.4,1.0,30.18,North,-999,0.0,0.0,21,0.00,,,-99.99,FreeWX 2.04,2013-03-15 00:32:00,
2013-03-14 20:42:00,36.9,0.7,30.18,North,-999,0.0,0.0,21,0.00,,,-99.99,FreeWX 2.04,2013-03-15 00:42:00,
2013-03-14 20:52:00,36.3,1.2,30.18,North,-999,0.0,0.0,22,0.00,,,-99.99,FreeWX 2.04,2013-03-15 00:52:00,
2013-03-14 21:02:00,35.8,0.7,30.18,North,-999,0.0,0.0,22,0.00,,,-99.99,FreeWX 2.04,2013-03-15 01:02:00,
2013-03-14 21:12:00,35.4,0.3,30.18,North,-999,0.0,0.0,22,0.00,,,-99.99,FreeWX 2.04,2013-03-15 01:12:00,
2013-03-14 21:22:00,34.9,0.0,30.18,North,-999,0.0,0.0,22,0.00,,,-99.99,FreeWX 2.04,2013-03-15 01:22:00,
2013-03-14 21:32:00,34.5,-0.4,30.18,North,-999,0.0,0.0,22,0.00,,,-99.99,FreeWX 2.04,2013-03-15 01:32:00,
2013-03-14 21:42:00,34.3,-0.6,30.18,North,-999,0.0,0.0,22,0.00,,,-99.99,FreeWX 2.04,2013-03-15 01:42:00,
2013-03-14 21:52:00,34.2,2.1,30.18,North,-999,0.0,0.0,25,0.00,,,-99.99,FreeWX 2.04,2013-03-15 01:52:00,
2013-03-14 22:02:00,33.3,1.2,30.18,North,-999,0.0,0.0,25,0.00,,,-99.99,FreeWX 2.04,2013-03-15 02:02:00,
2013-03-14 22:12:00,33.1,1.2,30.18,North,-999,0.0,0.0,25,0.00,,,-99.99,FreeWX 2.04,2013-03-15 02:12:00,
2013-03-14 22:22:00,32.7,0.9,30.18,North,-999,0.0,0.0,25,0.00,,,-99.99,FreeWX 2.04,2013-03-15 02:22:00,
2013-03-14 22:32:00,32.2,0.3,30.18,North,-999,0.0,0.0,25,0.00,,,-99.99,FreeWX 2.04,2013-03-15 02:32:00,
2013-03-14 22:42:00,32.2,2.8,30.18,North,-999,0.0,0.0,28,0.00,,,-99.99,FreeWX 2.04,2013-03-15 02:42:00,
2013-03-14 22:52:00,32.2,2.8,30.18,North,-999,0.0,0.0,28,0.00,,,-99.99,FreeWX 2.04,2013-03-15 02:52:00,
2013-03-14 23:02:00,32.4,3.0,30.18,North,-999,0.0,0.0,28,0.00,,,-99.99,FreeWX 2.04,2013-03-15 03:02:00,
2013-03-14 23:12:00,32.2,4.3,30.18,North,-999,0.0,0.0,30,0.00,,,-99.99,FreeWX 2.04,2013-03-15 03:12:00,
2013-03-14 23:22:00,32.0,4.1,30.18,North,-999,0.0,0.0,30,0.00,,,-99.99,FreeWX 2.04,2013-03-15 03:22:00,
2013-03-14 23:32:00,31.6,4.5,30.18,North,-999,0.0,0.0,31,0.00,,,-99.99,FreeWX 2.04,2013-03-15 03:32:00,
2013-03-14 23:42:00,31.8,6.1,30.18,North,-999,0.0,0.0,33,0.00,,,-99.99,FreeWX 2.04,2013-03-15 03:42:00,
2013-03-14 23:52:00,31.3,4.8,30.18,North,-999,0.0,0.0,32,0.00,,,-99.99,FreeWX 2.04,2013-03-15 03:52:00,